createdAt,value
2018-01-08T00:00:33.475Z,7.19
2018-01-08T00:01:32.782Z,7.15
2018-01-08T00:02:33.083Z,7.18
2018-01-08T00:03:33.206Z,7.18
2018-01-08T00:04:32.282Z,7.16
2018-01-08T00:05:32.524Z,7.16
2018-01-08T00:06:32.868Z,7.16
2018-01-08T00:07:33.352Z,7.15
2018-01-08T00:08:33.269Z,7.13
2018-01-08T00:09:33.812Z,7.15
2018-01-08T00:10:33.100Z,7.15
2018-01-08T00:11:32.442Z,7.12
2018-01-08T00:12:32.730Z,7.15
2018-01-08T00:13:33.044Z,7.16
2018-01-08T00:14:33.380Z,7.12
2018-01-08T00:15:34.230Z,7.12
2018-01-08T00:16:33.346Z,7.11
2018-01-08T00:17:34.012Z,7.12
2018-01-08T00:18:33.946Z,7.13
2018-01-08T00:19:32.758Z,7.12
2018-01-08T00:20:33.024Z,7.12
2018-01-08T00:21:33.280Z,7.13
2018-01-08T00:22:33.875Z,7.11
2018-01-08T00:23:33.037Z,7.11
2018-01-08T00:24:33.465Z,7.12
2018-01-08T00:25:32.970Z,7.11
2018-01-08T00:26:33.328Z,7.11
2018-01-08T00:27:33.922Z,7.11
2018-01-08T00:28:33.071Z,7.09
2018-01-08T00:29:33.195Z,7.09
2018-01-08T00:30:32.577Z,7.12
2018-01-08T00:31:32.632Z,7.12
2018-01-08T00:32:32.554Z,7.12
2018-01-08T00:33:33.273Z,7.13
2018-01-08T00:34:32.433Z,7.13
2018-01-08T00:35:32.643Z,7.16
2018-01-08T00:36:32.474Z,7.13
2018-01-08T00:37:32.848Z,7.12
2018-01-08T00:38:33.176Z,7.13
2018-01-08T00:39:33.583Z,7.12
2018-01-08T00:40:33.036Z,7.11
2018-01-08T00:41:33.296Z,7.11
2018-01-08T00:42:33.903Z,7.12
2018-01-08T00:43:33.084Z,7.13
2018-01-08T00:44:33.435Z,7.12
2018-01-08T00:45:32.715Z,7.11
2018-01-08T00:46:33.031Z,7.12
2018-01-08T00:47:33.226Z,7.12
2018-01-08T00:50:33.952Z,7.12
2018-01-08T00:51:33.123Z,7.12
2018-01-08T00:52:33.409Z,7.13
2018-01-08T00:53:31.773Z,7.09
2018-01-08T00:54:31.891Z,7.12
2018-01-08T00:55:32.066Z,7.11
2018-01-08T00:56:32.206Z,7.12
2018-01-08T00:57:32.295Z,7.12
2018-01-08T00:58:32.391Z,7.09
2018-01-08T00:59:32.644Z,7.12
2018-01-08T01:00:31.807Z,7.12
2018-01-08T01:01:32.378Z,7.13
2018-01-08T01:02:32.791Z,7.13
2018-01-08T01:03:31.969Z,7.13
2018-01-08T01:04:32.245Z,7.12
2018-01-08T01:05:32.437Z,7.13
2018-01-08T01:06:32.594Z,7.15
2018-01-08T01:07:31.736Z,7.13
2018-01-08T01:08:31.975Z,7.13
2018-01-08T01:09:32.260Z,7.13
2018-01-08T01:10:32.434Z,7.15
2018-01-08T01:11:32.572Z,7.12
2018-01-08T01:14:32.635Z,7.12
2018-01-08T01:15:31.862Z,7.11
2018-01-08T01:16:32.020Z,7.13
2018-01-08T01:17:32.102Z,7.11
2018-01-08T01:18:32.305Z,7.13
2018-01-08T01:19:32.474Z,7.11
2018-01-08T01:20:32.782Z,7.11
2018-01-08T01:21:32.038Z,7.09
2018-01-08T01:22:32.219Z,7.13
2018-01-08T01:23:32.695Z,7.11
2018-01-08T01:24:31.792Z,7.11
2018-01-08T01:25:31.902Z,7.12
2018-01-08T01:26:32.224Z,7.12
2018-01-08T01:27:32.403Z,7.09
2018-01-08T01:28:32.422Z,7.12
2018-01-08T01:29:32.705Z,7.09
2018-01-08T01:30:32.115Z,7.12
2018-01-08T01:31:32.303Z,7.11
2018-01-08T01:32:32.415Z,7.09
2018-01-08T01:33:32.637Z,7.12
2018-01-08T01:34:32.046Z,7.11
2018-01-08T01:35:32.252Z,7.09
2018-01-08T01:36:32.488Z,7.09
2018-01-08T01:37:32.764Z,7.09
2018-01-08T01:38:32.186Z,7.12
2018-01-08T01:41:32.472Z,7.15
2018-01-08T01:42:32.751Z,7.12
2018-01-08T01:43:32.142Z,7.12
2018-01-08T01:44:33.347Z,7.12
2018-01-08T01:45:31.734Z,7.13
2018-01-08T01:46:32.095Z,7.11
2018-01-08T01:47:32.425Z,7.08
2018-01-08T01:48:31.572Z,7.09
2018-01-08T01:49:31.775Z,7.11
2018-01-08T01:50:32.073Z,7.08
2018-01-08T01:51:32.658Z,7.11
2018-01-08T01:52:32.067Z,7.11
2018-01-08T01:53:32.405Z,7.09
2018-01-08T01:54:32.860Z,7.12
2018-01-08T01:55:32.345Z,7.11
2018-01-08T01:56:31.838Z,7.09
2018-01-08T01:57:32.185Z,7.12
2018-01-08T01:58:32.456Z,7.11
2018-01-08T01:59:31.849Z,7.11
2018-01-08T02:00:32.337Z,7.13
2018-01-08T02:01:32.496Z,7.09
2018-01-08T02:02:32.420Z,7.13
2018-01-08T02:03:31.860Z,7.13
2018-01-08T02:04:31.861Z,7.13
2018-01-08T02:05:32.187Z,7.13
2018-01-08T02:06:31.738Z,7.12
2018-01-08T02:07:31.938Z,7.13
2018-01-08T02:08:32.204Z,7.13
2018-01-08T02:09:32.461Z,7.12
2018-01-08T02:10:31.652Z,7.15
2018-01-08T02:11:31.894Z,7.13
2018-01-08T02:12:32.206Z,7.15
2018-01-08T02:13:32.298Z,7.15
2018-01-08T02:14:32.156Z,7.12
2018-01-08T02:15:32.191Z,7.13
2018-01-08T02:16:32.670Z,7.15
2018-01-08T02:17:31.879Z,7.15
2018-01-08T02:18:32.071Z,7.13
2018-01-08T02:19:32.256Z,7.13
2018-01-08T02:20:32.428Z,7.13
2018-01-08T02:21:31.647Z,7.12
2018-01-08T02:22:31.791Z,7.13
2018-01-08T02:23:32.463Z,7.13
2018-01-08T02:24:31.820Z,7.12
2018-01-08T02:25:32.156Z,7.09
2018-01-08T02:26:31.525Z,7.12
2018-01-08T02:27:31.910Z,7.12
2018-01-08T02:28:31.733Z,7.11
2018-01-08T02:29:31.104Z,7.12
2018-01-08T02:30:31.350Z,7.12
2018-01-08T02:31:31.686Z,7.15
2018-01-08T02:32:31.541Z,7.12
2018-01-08T02:33:31.760Z,7.11
2018-01-08T02:34:31.114Z,7.15
2018-01-08T02:35:31.121Z,7.12
2018-01-08T02:36:31.378Z,7.12
2018-01-08T02:37:31.715Z,7.11
2018-01-08T02:38:32.119Z,7.12
2018-01-08T02:39:31.614Z,7.11
2018-01-08T02:40:31.928Z,7.11
2018-01-08T02:41:31.252Z,7.11
2018-01-08T02:42:31.389Z,7.09
2018-01-08T02:43:31.799Z,7.11
2018-01-08T02:44:57.273Z,7.13
2018-01-08T02:45:31.444Z,7.12
2018-01-08T02:46:31.704Z,7.13
2018-01-08T02:47:31.935Z,7.11
2018-01-08T02:48:32.060Z,7.12
2018-01-08T02:49:31.658Z,7.13
2018-01-08T02:50:31.764Z,7.11
2018-01-08T02:51:32.176Z,7.12
2018-01-08T02:52:31.574Z,7.11
2018-01-08T02:53:31.843Z,7.11
2018-01-08T02:54:32.238Z,7.09
2018-01-08T02:55:31.602Z,7.15
2018-01-08T02:56:32.048Z,7.09
2018-01-08T02:57:32.325Z,7.09
2018-01-08T02:58:32.727Z,7.09
2018-01-08T02:59:31.946Z,7.11
2018-01-08T03:00:32.149Z,7.09
2018-01-08T03:01:32.597Z,7.08
2018-01-08T03:02:32.850Z,7.09
2018-01-08T03:03:32.121Z,7.09
2018-01-08T03:04:32.294Z,7.08
2018-01-08T03:05:32.499Z,7.06
2018-01-08T03:06:32.808Z,7.06
2018-01-08T03:07:32.085Z,7.09
2018-01-08T03:08:32.285Z,7.06
2018-01-08T03:09:32.580Z,7.06
2018-01-08T03:10:31.936Z,7.06
2018-01-08T03:11:32.260Z,7.06
2018-01-08T03:12:32.901Z,7.08
2018-01-08T03:13:32.353Z,7.05
2018-01-08T03:14:32.655Z,7.06
2018-01-08T03:15:31.842Z,7.05
2018-01-08T03:16:32.095Z,7.08
2018-01-08T03:17:32.245Z,7.06
2018-01-08T03:18:32.671Z,7.05
2018-01-08T03:19:31.950Z,7.03
2018-01-08T03:20:32.082Z,7.03
2018-01-08T03:21:32.355Z,7.06
2018-01-08T03:22:32.527Z,7.05
2018-01-08T03:23:31.944Z,7.05
2018-01-08T03:24:32.246Z,6.99
2018-01-08T03:27:32.342Z,7.03
2018-01-08T03:28:31.582Z,6.99
2018-01-08T03:29:31.969Z,7.02
2018-01-08T03:30:31.360Z,7.03
2018-01-08T03:31:31.647Z,6.96
2018-01-08T03:32:31.834Z,7.01
2018-01-08T03:33:31.462Z,7.01
2018-01-08T03:34:31.864Z,7.01
2018-01-08T03:35:31.457Z,6.98
2018-01-08T03:36:31.899Z,6.98
2018-01-08T03:37:31.002Z,7.01
2018-01-08T03:38:31.212Z,6.99
2018-01-08T03:39:31.633Z,6.98
2018-01-08T03:40:31.889Z,6.99
2018-01-08T03:41:32.010Z,6.98
2018-01-08T03:42:31.245Z,6.99
2018-01-08T03:43:31.420Z,6.96
2018-01-08T03:44:31.798Z,6.96
2018-01-08T03:45:32.043Z,6.99
2018-01-08T03:46:31.300Z,6.98
2018-01-08T03:47:31.579Z,6.99
2018-01-08T03:48:31.878Z,6.98
2018-01-08T03:49:32.112Z,6.98
2018-01-08T03:50:31.434Z,6.98
2018-01-08T03:51:31.798Z,6.99
2018-01-08T03:52:31.990Z,6.95
2018-01-08T03:53:31.979Z,6.98
2018-01-08T03:54:32.135Z,6.95
2018-01-08T03:55:31.430Z,6.96
2018-01-08T03:56:31.642Z,6.96
2018-01-08T03:57:31.826Z,6.96
2018-01-08T03:58:32.024Z,6.95
2018-01-08T03:59:31.158Z,6.95
2018-01-08T04:00:31.457Z,6.95
2018-01-08T04:01:31.535Z,6.98
2018-01-08T04:02:31.735Z,6.95
2018-01-08T04:03:32.102Z,6.95
2018-01-08T04:04:31.192Z,6.95
2018-01-08T04:05:31.480Z,6.95
2018-01-08T04:06:31.838Z,6.95
2018-01-08T04:07:31.973Z,6.95
2018-01-08T04:08:31.098Z,6.96
2018-01-08T04:09:31.205Z,6.94
2018-01-08T04:10:31.391Z,6.92
2018-01-08T04:11:31.694Z,6.94
2018-01-08T04:12:31.882Z,6.95
2018-01-08T04:13:31.086Z,6.95
2018-01-08T04:14:31.228Z,6.92
2018-01-08T04:15:31.426Z,6.95
2018-01-08T04:16:31.649Z,6.94
2018-01-08T04:17:32.100Z,6.95
2018-01-08T04:18:31.582Z,6.95
2018-01-08T04:19:31.829Z,6.94
2018-01-08T04:20:30.908Z,6.95
2018-01-08T04:21:32.071Z,6.96
2018-01-08T04:22:31.281Z,6.94
2018-01-08T04:23:31.678Z,6.96
2018-01-08T04:24:32.042Z,6.96
2018-01-08T04:25:31.235Z,6.95
2018-01-08T04:26:31.478Z,6.95
2018-01-08T04:27:31.661Z,6.98
2018-01-08T04:28:30.988Z,6.98
2018-01-08T04:29:31.318Z,6.98
2018-01-08T04:30:31.564Z,6.98
2018-01-08T04:31:31.781Z,6.98
2018-01-08T04:32:32.254Z,6.98
2018-01-08T04:33:31.408Z,6.98
2018-01-08T04:34:31.456Z,6.96
2018-01-08T04:35:31.585Z,6.95
2018-01-08T04:36:31.899Z,6.98
2018-01-08T04:37:32.089Z,6.96
2018-01-08T04:38:31.524Z,6.96
2018-01-08T04:39:32.035Z,6.96
2018-01-08T04:40:31.224Z,6.96
2018-01-08T04:41:31.493Z,6.96
2018-01-08T04:42:31.692Z,6.99
2018-01-08T04:43:31.766Z,6.99
2018-01-08T04:44:32.100Z,6.96
2018-01-08T04:45:31.401Z,6.99
2018-01-08T04:46:31.654Z,6.99
2018-01-08T04:47:31.839Z,6.99
2018-01-08T04:48:32.166Z,6.96
2018-01-08T04:49:31.597Z,6.98
2018-01-08T04:50:31.657Z,6.98
2018-01-08T04:51:31.765Z,6.99
2018-01-08T04:52:31.963Z,6.96
2018-01-08T04:53:32.160Z,6.98
2018-01-08T04:54:31.483Z,6.95
2018-01-08T04:55:31.630Z,6.99
2018-01-08T04:56:31.813Z,6.99
2018-01-08T04:57:31.910Z,6.95
2018-01-08T04:58:32.132Z,6.99
2018-01-08T04:59:31.395Z,6.98
2018-01-08T05:00:31.556Z,6.98
2018-01-08T05:01:31.594Z,6.98
2018-01-08T05:02:31.816Z,6.99
2018-01-08T05:03:32.080Z,6.98
2018-01-08T05:04:32.270Z,6.96
2018-01-08T05:05:31.416Z,6.98
2018-01-08T05:06:31.638Z,6.98
2018-01-08T05:07:31.852Z,6.98
2018-01-08T05:08:31.906Z,6.99
2018-01-08T05:09:32.108Z,6.98
2018-01-08T05:10:31.601Z,7.01
2018-01-08T05:11:32.005Z,7.01
2018-01-08T05:12:32.127Z,6.98
2018-01-08T05:13:32.441Z,6.96
2018-01-08T05:14:31.520Z,6.96
2018-01-08T05:15:31.754Z,6.96
2018-01-08T05:16:32.005Z,6.98
2018-01-08T05:17:32.334Z,6.95
2018-01-08T05:18:31.537Z,6.96
2018-01-08T05:19:31.598Z,6.96
2018-01-08T05:20:31.872Z,6.99
2018-01-08T05:21:32.276Z,6.98
2018-01-08T05:22:31.382Z,6.98
2018-01-08T05:23:31.637Z,6.98
2018-01-08T05:24:31.986Z,6.96
2018-01-08T05:25:32.297Z,6.96
2018-01-08T05:26:32.187Z,6.95
2018-01-08T05:27:31.377Z,6.95
2018-01-08T05:28:31.614Z,6.96
2018-01-08T05:29:32.138Z,6.95
2018-01-08T05:30:32.496Z,6.95
2018-01-08T05:31:32.211Z,6.96
2018-01-08T05:32:32.587Z,6.95
2018-01-08T05:33:32.384Z,6.96
2018-01-08T05:34:32.281Z,6.95
2018-01-08T05:35:32.629Z,6.98
2018-01-08T05:36:32.486Z,6.96
2018-01-08T05:37:32.639Z,6.95
2018-01-08T05:38:32.563Z,6.96
2018-01-08T05:39:33.065Z,6.96
2018-01-08T05:40:32.445Z,6.96
2018-01-08T05:41:32.765Z,6.96
2018-01-08T05:42:32.207Z,6.96
2018-01-08T05:43:32.330Z,6.96
2018-01-08T05:44:32.566Z,6.95
2018-01-08T05:45:32.353Z,6.95
2018-01-08T05:46:32.289Z,6.98
2018-01-08T05:47:32.388Z,6.96
2018-01-08T05:48:32.567Z,6.96
2018-01-08T05:49:32.883Z,6.98
2018-01-08T05:50:32.629Z,6.95
2018-01-08T05:51:32.624Z,6.96
2018-01-08T05:52:32.802Z,6.95
2018-01-08T05:53:32.283Z,6.95
2018-01-08T05:54:32.710Z,6.95
2018-01-08T05:55:32.235Z,6.95
2018-01-08T05:56:32.407Z,6.95
2018-01-08T05:57:32.618Z,6.95
2018-01-08T05:58:31.965Z,6.92
2018-01-08T05:59:32.278Z,6.95
2018-01-08T06:00:31.558Z,6.96
2018-01-08T06:01:31.968Z,6.94
2018-01-08T06:02:31.289Z,6.98
2018-01-08T06:03:31.471Z,6.96
2018-01-08T06:04:31.860Z,6.96
2018-01-08T06:05:31.982Z,6.95
2018-01-08T06:06:31.250Z,6.98
2018-01-08T06:07:31.472Z,6.96
2018-01-08T06:08:31.898Z,6.98
2018-01-08T06:09:31.231Z,6.98
2018-01-08T06:10:31.343Z,6.98
2018-01-08T06:11:31.637Z,6.99
2018-01-08T06:12:31.981Z,7.01
2018-01-08T06:13:31.154Z,6.98
2018-01-08T06:14:31.493Z,6.98
2018-01-08T06:15:32.101Z,6.96
2018-01-08T06:16:31.372Z,6.98
2018-01-08T06:17:31.598Z,6.96
2018-01-08T06:18:31.983Z,6.99
2018-01-08T06:19:31.270Z,6.96
2018-01-08T06:20:31.585Z,6.96
2018-01-08T06:21:31.938Z,6.99
2018-01-08T06:22:32.209Z,6.98
2018-01-08T06:23:31.605Z,6.99
2018-01-08T06:24:31.855Z,6.94
2018-01-08T06:25:32.165Z,6.96
2018-01-08T06:26:31.948Z,6.96
2018-01-08T06:27:31.279Z,6.98
2018-01-08T06:28:31.696Z,6.98
2018-01-08T06:29:32.039Z,6.98
2018-01-08T06:30:31.418Z,6.98
2018-01-08T06:31:31.890Z,6.99
2018-01-08T06:32:31.938Z,6.96
2018-01-08T06:33:32.009Z,6.99
2018-01-08T06:34:32.306Z,6.98
2018-01-08T06:35:31.638Z,6.96
2018-01-08T06:36:31.786Z,6.95
2018-01-08T06:37:32.293Z,6.96
2018-01-08T06:38:31.710Z,6.98
2018-01-08T06:39:32.060Z,6.99
2018-01-08T06:40:32.354Z,6.96
2018-01-08T06:41:31.718Z,6.99
2018-01-08T06:42:32.057Z,6.98
2018-01-08T06:43:31.299Z,7.01
2018-01-08T06:44:31.547Z,7.01
2018-01-08T06:45:31.839Z,7.01
2018-01-08T06:46:32.160Z,7.01
2018-01-08T06:47:31.826Z,7.01
2018-01-08T06:48:31.993Z,6.99
2018-01-08T06:49:32.055Z,6.99
2018-01-08T06:50:32.332Z,6.99
2018-01-08T06:51:31.615Z,6.99
2018-01-08T06:52:32.024Z,7.01
2018-01-08T06:53:32.317Z,7.02
2018-01-08T06:54:31.671Z,6.99
2018-01-08T06:55:31.972Z,6.99
2018-01-08T06:56:32.310Z,6.99
2018-01-08T06:57:31.822Z,6.99
2018-01-08T06:58:32.105Z,6.99
2018-01-08T06:59:31.435Z,7.01
2018-01-08T07:00:31.754Z,7.01
2018-01-08T07:01:32.081Z,7.01
2018-01-08T07:02:32.294Z,7.01
2018-01-08T07:03:32.477Z,6.98
2018-01-08T07:04:31.634Z,6.99
2018-01-08T07:05:31.797Z,6.99
2018-01-08T07:06:31.964Z,6.98
2018-01-08T07:07:32.312Z,6.98
2018-01-08T07:08:31.969Z,6.98
2018-01-08T07:09:32.334Z,6.96
2018-01-08T07:10:32.699Z,6.99
2018-01-08T07:11:31.934Z,6.98
2018-01-08T07:12:32.143Z,6.98
2018-01-08T07:13:32.452Z,6.99
2018-01-08T07:14:31.912Z,6.98
2018-01-08T07:15:32.296Z,6.98
2018-01-08T07:16:32.593Z,6.98
2018-01-08T07:17:32.544Z,7.01
2018-01-08T07:18:32.293Z,6.98
2018-01-08T07:19:32.290Z,6.99
2018-01-08T07:20:32.644Z,6.99
2018-01-08T07:21:32.711Z,6.99
2018-01-08T07:22:32.530Z,7.01
2018-01-08T07:23:31.918Z,6.99
2018-01-08T07:24:32.221Z,6.99
2018-01-08T07:25:32.555Z,7.01
2018-01-08T07:26:31.812Z,6.99
2018-01-08T07:27:32.089Z,7.01
2018-01-08T07:28:32.349Z,7.01
2018-01-08T07:29:32.501Z,7.01
2018-01-08T07:30:32.772Z,7.01
2018-01-08T07:31:32.050Z,7.01
2018-01-08T07:32:32.407Z,6.99
2018-01-08T07:33:32.312Z,7.01
2018-01-08T07:34:32.603Z,7.02
2018-01-08T07:35:31.750Z,6.98
2018-01-08T07:36:31.969Z,7.03
2018-01-08T07:37:32.322Z,7.01
2018-01-08T07:38:32.492Z,7.01
2018-01-08T07:39:32.396Z,6.99
2018-01-08T07:40:32.728Z,6.99
2018-01-08T07:41:32.012Z,7.01
2018-01-08T07:42:32.216Z,7.01
2018-01-08T07:43:32.454Z,7.01
2018-01-08T07:44:31.729Z,7.02
2018-01-08T07:45:31.990Z,7.01
2018-01-08T07:46:32.154Z,7.01
2018-01-08T07:47:32.539Z,7.02
2018-01-08T07:48:31.974Z,7.01
2018-01-08T07:49:32.454Z,7.01
2018-01-08T07:50:31.887Z,7.01
2018-01-08T07:51:32.442Z,6.99
2018-01-08T07:52:32.268Z,7.01
2018-01-08T07:53:32.544Z,7.01
2018-01-08T07:54:32.072Z,7.01
2018-01-08T07:55:32.356Z,7.01
2018-01-08T07:56:31.712Z,7.01
2018-01-08T07:57:31.924Z,7.01
2018-01-08T07:58:32.031Z,7.01
2018-01-08T07:59:32.282Z,6.98
2018-01-08T08:00:32.661Z,7.02
2018-01-08T08:01:31.949Z,7.02
2018-01-08T08:02:31.446Z,7.03
2018-01-08T08:03:31.871Z,7.03
2018-01-08T08:04:31.035Z,7.03
2018-01-08T08:05:31.260Z,7.03
2018-01-08T08:06:31.485Z,7.03
2018-01-08T08:07:31.670Z,7.03
2018-01-08T08:08:31.867Z,7.02
2018-01-08T08:09:31.020Z,7.02
2018-01-08T08:10:31.142Z,7.02
2018-01-08T08:11:31.406Z,7.01
2018-01-08T08:12:31.913Z,7.02
2018-01-08T08:13:31.128Z,7.02
2018-01-08T08:14:31.412Z,7.02
2018-01-08T08:15:31.663Z,7.02
2018-01-08T08:16:31.805Z,7.02
2018-01-08T08:17:31.165Z,7.02
2018-01-08T08:18:31.528Z,7.05
2018-01-08T08:19:31.905Z,7.03
2018-01-08T08:20:31.128Z,7.02
2018-01-08T08:21:31.385Z,7.02
2018-01-08T08:22:31.766Z,7.05
2018-01-08T08:23:31.208Z,7.05
2018-01-08T08:24:31.325Z,7.02
2018-01-08T08:25:31.644Z,7.03
2018-01-08T08:26:32.138Z,7.03
2018-01-08T08:27:31.736Z,7.02
2018-01-08T08:28:31.140Z,7.05
2018-01-08T08:29:31.371Z,7.05
2018-01-08T08:30:31.505Z,7.03
2018-01-08T08:31:31.614Z,7.03
2018-01-08T08:32:31.878Z,7.03
2018-01-08T08:33:32.010Z,7.02
2018-01-08T08:34:32.382Z,7.03
2018-01-08T08:35:32.699Z,7.05
2018-01-08T08:36:31.952Z,7.03
2018-01-08T08:37:31.985Z,7.03
2018-01-08T08:38:32.229Z,7.02
2018-01-08T08:39:32.749Z,7.02
2018-01-08T08:40:32.021Z,7.03
2018-01-08T08:41:32.239Z,7.03
2018-01-08T08:42:32.345Z,7.02
2018-01-08T08:43:32.460Z,7.05
2018-01-08T08:44:32.554Z,7.05
2018-01-08T08:45:32.541Z,7.05
2018-01-08T08:46:32.690Z,7.05
2018-01-08T08:47:32.190Z,7.08
2018-01-08T08:48:32.433Z,7.05
2018-01-08T08:49:32.276Z,7.03
2018-01-08T08:50:32.575Z,7.05
2018-01-08T08:51:32.860Z,7.06
2018-01-08T08:52:32.341Z,7.05
2018-01-08T08:53:32.641Z,7.05
2018-01-08T08:54:32.247Z,7.08
2018-01-08T08:55:32.444Z,7.09
2018-01-08T08:56:32.259Z,7.03
2018-01-08T08:57:32.597Z,7.06
2018-01-08T08:58:32.171Z,7.08
2018-01-08T08:59:32.403Z,7.09
2018-01-08T09:00:32.647Z,7.09
2018-01-08T09:01:32.372Z,7.09
2018-01-08T09:02:32.720Z,7.06
2018-01-08T09:03:32.072Z,7.08
2018-01-08T09:04:32.439Z,7.09
2018-01-08T09:05:32.515Z,7.06
2018-01-08T09:06:32.011Z,7.08
2018-01-08T09:07:32.190Z,7.09
2018-01-08T09:08:32.231Z,7.09
2018-01-08T09:09:32.367Z,7.08
2018-01-08T09:10:32.470Z,7.12
2018-01-08T09:11:31.720Z,7.13
2018-01-08T09:12:32.032Z,7.12
2018-01-08T09:13:32.348Z,7.12
2018-01-08T09:14:32.813Z,7.11
2018-01-08T09:15:32.171Z,7.12
2018-01-08T09:16:32.433Z,7.12
2018-01-08T09:17:33.170Z,7.15
2018-01-08T09:18:32.023Z,7.12
2018-01-08T09:19:32.291Z,7.12
2018-01-08T09:20:32.728Z,7.13
2018-01-08T09:21:32.581Z,7.13
2018-01-08T09:22:31.895Z,7.15
2018-01-08T09:23:31.968Z,7.13
2018-01-08T09:24:32.180Z,7.15
2018-01-08T09:25:32.290Z,7.15
2018-01-08T09:26:32.587Z,7.13
2018-01-08T09:27:32.143Z,7.16
2018-01-08T09:28:32.642Z,7.18
2018-01-08T09:29:32.087Z,7.16
2018-01-08T09:30:32.331Z,7.15
2018-01-08T09:31:32.673Z,7.15
2018-01-08T09:32:32.048Z,7.19
2018-01-08T09:33:32.525Z,7.19
2018-01-08T09:34:31.642Z,7.19
2018-01-08T09:35:31.829Z,7.19
2018-01-08T09:36:32.160Z,7.2
2018-01-08T09:37:31.472Z,7.18
2018-01-08T09:38:31.813Z,7.19
2018-01-08T09:39:32.181Z,7.2
2018-01-08T09:40:31.473Z,7.2
2018-01-08T09:41:31.899Z,7.22
2018-01-08T09:42:32.509Z,7.22
2018-01-08T09:43:31.867Z,7.22
2018-01-08T09:44:32.442Z,7.22
2018-01-08T09:45:31.814Z,7.22
2018-01-08T09:46:32.166Z,7.23
2018-01-08T09:47:31.480Z,7.24
2018-01-08T09:48:31.770Z,7.22
2018-01-08T09:49:32.237Z,7.24
2018-01-08T09:50:31.373Z,7.24
2018-01-08T09:51:31.773Z,7.26
2018-01-08T09:52:32.206Z,7.23
2018-01-08T09:53:31.599Z,7.26
2018-01-08T09:54:31.768Z,7.29
2018-01-08T09:55:32.249Z,7.27
2018-01-08T09:56:31.535Z,7.27
2018-01-08T09:57:31.836Z,7.26
2018-01-08T09:58:32.221Z,7.26
2018-01-08T09:59:31.781Z,7.31
2018-01-08T10:00:32.093Z,7.33
2018-01-08T10:01:32.790Z,7.3
2018-01-08T10:02:32.154Z,7.33
2018-01-08T10:03:31.580Z,7.31
2018-01-08T10:04:32.083Z,7.3
2018-01-08T10:05:31.502Z,7.34
2018-01-08T10:06:32.407Z,7.33
2018-01-08T10:07:31.283Z,7.34
2018-01-08T10:08:31.495Z,7.31
2018-01-08T10:09:31.736Z,7.34
2018-01-08T10:10:31.185Z,7.33
2018-01-08T10:11:31.630Z,7.34
2018-01-08T10:12:32.054Z,7.36
2018-01-08T10:13:31.492Z,7.37
2018-01-08T10:14:31.997Z,7.37
2018-01-08T10:15:31.338Z,7.36
2018-01-08T10:16:31.669Z,7.37
2018-01-08T10:17:32.348Z,7.37
2018-01-08T10:18:31.735Z,7.39
2018-01-08T10:19:31.120Z,7.37
2018-01-08T10:20:31.481Z,7.37
2018-01-08T10:21:31.007Z,7.37
2018-01-08T10:22:31.273Z,7.41
2018-01-08T10:23:31.657Z,7.41
2018-01-08T10:24:32.074Z,7.43
2018-01-08T10:25:31.350Z,7.44
2018-01-08T10:26:31.736Z,7.44
2018-01-08T10:27:31.051Z,7.44
2018-01-08T10:28:31.211Z,7.44
2018-01-08T10:29:56.913Z,7.44
2018-01-08T10:30:31.300Z,7.43
2018-01-08T10:31:31.570Z,7.47
2018-01-08T10:32:31.102Z,7.48
2018-01-08T10:33:31.379Z,7.5
2018-01-08T10:34:31.517Z,7.47
2018-01-08T10:35:31.932Z,7.53
2018-01-08T10:36:32.285Z,7.5
2018-01-08T10:37:32.662Z,7.53
2018-01-08T10:38:31.861Z,7.48
2018-01-08T10:39:32.109Z,7.53
2018-01-08T10:40:32.628Z,7.53
2018-01-08T10:41:32.116Z,7.54
2018-01-08T10:42:32.528Z,7.55
2018-01-08T10:43:32.268Z,7.55
2018-01-08T10:44:32.604Z,7.59
2018-01-08T10:45:31.844Z,7.61
2018-01-08T10:46:32.119Z,7.61
2018-01-08T10:47:32.329Z,7.64
2018-01-08T10:48:32.874Z,7.62
2018-01-08T10:49:32.188Z,7.64
2018-01-08T10:50:32.535Z,7.64
2018-01-08T10:51:31.920Z,7.64
2018-01-08T10:52:32.309Z,7.64
2018-01-08T10:53:32.969Z,7.65
2018-01-08T10:54:32.635Z,7.65
2018-01-08T10:55:32.173Z,7.67
2018-01-08T10:56:32.621Z,7.69
2018-01-08T10:57:32.195Z,7.68
2018-01-08T10:58:32.622Z,7.68
2018-01-08T10:59:32.118Z,7.67
2018-01-08T11:00:32.598Z,7.67
2018-01-08T11:01:31.943Z,7.67
2018-01-08T11:02:32.318Z,7.68
2018-01-08T11:03:32.838Z,7.68
2018-01-08T11:04:32.154Z,7.67
2018-01-08T11:05:33.095Z,7.67
2018-01-08T11:06:32.571Z,7.68
2018-01-08T11:07:32.999Z,7.67
2018-01-08T11:08:32.824Z,7.62
2018-01-08T11:09:32.378Z,7.64
2018-01-08T11:10:32.804Z,7.65
2018-01-08T11:11:32.140Z,7.67
2018-01-08T11:12:32.541Z,7.65
2018-01-08T11:13:32.389Z,7.65
2018-01-08T11:14:32.712Z,7.64
2018-01-08T11:15:32.228Z,7.65
2018-01-08T11:16:32.632Z,7.67
2018-01-08T11:17:32.042Z,7.68
2018-01-08T11:18:32.652Z,7.72
2018-01-08T11:19:31.986Z,7.69
2018-01-08T11:20:32.202Z,7.68
2018-01-08T11:21:32.657Z,7.72
2018-01-08T11:22:32.784Z,7.74
2018-01-08T11:23:32.428Z,7.71
2018-01-08T11:24:33.023Z,7.72
2018-01-08T11:25:32.587Z,7.77
2018-01-08T11:26:32.245Z,7.77
2018-01-08T11:27:32.613Z,7.78
2018-01-08T11:28:32.108Z,7.81
2018-01-08T11:29:32.558Z,7.84
2018-01-08T11:30:32.900Z,7.82
2018-01-08T11:31:32.157Z,7.86
2018-01-08T11:32:32.548Z,7.84
2018-01-08T11:33:33.011Z,7.85
2018-01-08T11:34:32.637Z,7.86
2018-01-08T11:35:31.979Z,7.85
2018-01-08T11:36:32.580Z,7.86
2018-01-08T11:37:32.484Z,7.93
2018-01-08T11:38:31.756Z,7.91
2018-01-08T11:39:33.176Z,7.92
2018-01-08T11:40:31.365Z,7.95
2018-01-08T11:41:31.631Z,7.95
2018-01-08T11:42:31.789Z,7.96
2018-01-08T11:43:32.097Z,7.98
2018-01-08T11:44:31.418Z,7.96
2018-01-08T11:45:31.667Z,7.96
2018-01-08T11:46:32.019Z,7.95
2018-01-08T11:47:32.273Z,7.96
2018-01-08T11:48:31.807Z,7.93
2018-01-08T11:49:32.155Z,7.95
2018-01-08T11:50:31.430Z,7.96
2018-01-08T11:51:31.662Z,7.95
2018-01-08T11:52:31.799Z,7.95
2018-01-08T11:53:32.075Z,7.96
2018-01-08T11:54:32.423Z,7.98
2018-01-08T11:55:31.676Z,7.98
2018-01-08T11:56:31.872Z,7.95
2018-01-08T11:57:32.139Z,7.96
2018-01-08T11:58:31.341Z,7.98
2018-01-08T11:59:31.891Z,7.98
2018-01-08T12:00:32.314Z,7.99
2018-01-08T12:01:31.589Z,7.96
2018-01-08T12:02:31.873Z,7.93
2018-01-08T12:03:32.065Z,7.95
2018-01-08T12:04:32.265Z,7.95
2018-01-08T12:05:31.442Z,7.95
2018-01-08T12:06:31.739Z,7.92
2018-01-08T12:07:32.196Z,7.93
2018-01-08T12:08:31.444Z,7.91
2018-01-08T12:09:31.760Z,7.93
2018-01-08T12:10:31.561Z,7.93
2018-01-08T12:11:31.973Z,7.92
2018-01-08T12:12:31.416Z,7.92
2018-01-08T12:13:31.659Z,7.92
2018-01-08T12:14:32.089Z,7.93
2018-01-08T12:15:31.518Z,7.91
2018-01-08T12:16:31.900Z,7.93
2018-01-08T12:17:31.305Z,7.95
2018-01-08T12:18:31.717Z,7.96
2018-01-08T12:19:32.601Z,7.96
2018-01-08T12:20:32.233Z,7.92
2018-01-08T12:21:31.846Z,7.93
2018-01-08T12:22:31.236Z,7.91
2018-01-08T12:23:31.662Z,7.95
2018-01-08T12:24:32.048Z,7.96
2018-01-08T12:25:31.383Z,7.98
2018-01-08T12:26:32.044Z,7.95
2018-01-08T12:27:31.474Z,7.93
2018-01-08T12:28:31.697Z,7.92
2018-01-08T12:29:32.172Z,7.93
2018-01-08T12:30:31.610Z,7.93
2018-01-08T12:31:32.055Z,7.95
2018-01-08T12:32:31.334Z,7.93
2018-01-08T12:33:31.523Z,7.92
2018-01-08T12:34:31.873Z,7.93
2018-01-08T12:35:31.264Z,7.92
2018-01-08T12:36:31.740Z,7.91
2018-01-08T12:37:32.177Z,7.91
2018-01-08T12:38:31.636Z,7.86
2018-01-08T12:39:31.910Z,7.85
2018-01-08T12:40:32.087Z,7.86
2018-01-08T12:41:32.187Z,7.88
2018-01-08T12:42:32.575Z,7.88
2018-01-08T12:43:31.881Z,7.86
2018-01-08T12:44:32.265Z,7.85
2018-01-08T12:45:32.570Z,7.89
2018-01-08T12:46:31.716Z,7.89
2018-01-08T12:47:31.988Z,7.88
2018-01-08T12:48:32.463Z,7.89
2018-01-08T12:49:31.720Z,7.88
2018-01-08T12:50:31.963Z,7.89
2018-01-08T12:51:32.147Z,7.88
2018-01-08T12:52:32.427Z,7.89
2018-01-08T12:53:31.820Z,7.89
2018-01-08T12:54:32.105Z,7.86
2018-01-08T12:55:32.276Z,7.86
2018-01-08T12:56:32.539Z,7.89
2018-01-08T12:57:32.039Z,7.88
2018-01-08T12:58:32.874Z,7.92
2018-01-08T12:59:32.186Z,7.91
2018-01-08T13:00:32.584Z,7.86
2018-01-08T13:01:32.117Z,7.89
2018-01-08T13:02:32.363Z,7.89
2018-01-08T13:03:31.855Z,7.89
2018-01-08T13:04:32.276Z,7.91
2018-01-08T13:05:32.616Z,7.89
2018-01-08T13:06:31.920Z,7.89
2018-01-08T13:07:32.413Z,7.91
2018-01-08T13:08:31.790Z,7.92
2018-01-08T13:09:32.477Z,7.86
2018-01-08T13:10:31.981Z,7.91
2018-01-08T13:11:32.333Z,7.88
2018-01-08T13:12:32.753Z,7.91
2018-01-08T13:13:32.267Z,7.89
2018-01-08T13:14:32.751Z,7.91
2018-01-08T13:15:32.324Z,7.86
2018-01-08T13:16:32.591Z,7.88
2018-01-08T13:17:32.016Z,7.91
2018-01-08T13:18:32.468Z,7.91
2018-01-08T13:19:31.809Z,7.89
2018-01-08T13:20:32.092Z,7.93
2018-01-08T13:21:32.387Z,7.93
2018-01-08T13:22:31.762Z,7.93
2018-01-08T13:23:31.921Z,7.92
2018-01-08T13:24:32.197Z,7.95
2018-01-08T13:25:32.476Z,7.96
2018-01-08T13:26:32.147Z,7.96